Time;durP1;ratioP1;P1;durP2;ratioP2;P2;SDS_P1;SDS_P2;PMS_P1;PMS_P2;Temp;Humidity;BMP_temperature;BMP_pressure;BME280_temperature;BME280_humidity;BME280_pressure;Samples;Min_cycle;Max_cycle;Signal;HPM_P1;HPM_P2
2022/04/14 00:01:33;;;;;;;;;;;10.70;99.90;;;;;;5098020;28;20010;-64
2022/04/14 00:03:58;;;;;;;;;;;10.70;99.90;;;;;;5105079;28;19920;-64
2022/04/14 00:06:24;;;;;;;;;;;10.70;99.90;;;;;;5096683;28;19928;-63
2022/04/14 00:08:51;;;;;;;;;;;10.70;99.90;;;;;;5078088;28;20374;-64
2022/04/14 00:11:16;;;;;;;;;;;10.70;99.90;;;;;;5093398;28;20056;-63
2022/04/14 00:13:42;;;;;;;;;;;10.60;99.90;;;;;;5078561;28;20459;-64
2022/04/14 00:16:08;;;;;;;;;;;10.60;99.90;;;;;;5078001;28;19974;-64
2022/04/14 00:18:33;;;;;;;;;;;10.50;99.90;;;;;;5096188;28;19931;-64
2022/04/14 00:20:59;;;;;;;;;;;10.40;99.90;;;;;;5099275;28;19931;-64
2022/04/14 00:23:25;;;;;;;;;;;10.30;99.90;;;;;;5096836;28;19971;-64
2022/04/14 00:25:51;;;;;;;;;;;10.50;99.90;;;;;;5095591;28;19924;-64
2022/04/14 00:28:17;;;;;;;;;;;10.20;99.90;;;;;;5107574;28;20204;-64
2022/04/14 00:30:43;;;;;;;;;;;10.20;99.90;;;;;;5117452;28;19924;-64
2022/04/14 00:33:08;;;;;;;;;;;10.20;99.90;;;;;;5117264;28;19924;-64
2022/04/14 00:35:34;;;;;;;;;;;10.30;99.90;;;;;;5116150;28;20498;-64
2022/04/14 00:38:00;;;;;;;;;;;10.30;99.90;;;;;;5116591;28;19924;-64
2022/04/14 00:40:25;;;;;;;;;;;10.40;99.90;;;;;;5117293;28;19924;-64
2022/04/14 00:42:51;;;;;;;;;;;10.30;99.90;;;;;;5116065;28;19967;-64
2022/04/14 00:45:17;;;;;;;;;;;10.20;99.90;;;;;;5098370;28;20302;-64
2022/04/14 00:47:42;;;;;;;;;;;10.10;99.90;;;;;;5098890;28;20405;-64
2022/04/14 00:50:08;;;;;;;;;;;10.10;99.90;;;;;;5097532;28;19927;-64
2022/04/14 00:52:34;;;;;;;;;;;10.10;99.90;;;;;;5098316;28;19924;-64
2022/04/14 00:54:59;;;;;;;;;;;10.10;99.90;;;;;;5116274;28;19976;-63
2022/04/14 00:57:25;;;;;;;;;;;10.10;99.90;;;;;;5097632;28;20358;-64
2022/04/14 00:59:51;;;;;;;;;;;10.00;99.90;;;;;;5116340;28;19931;-64
2022/04/14 01:02:16;;;;;;;;;;;10.00;99.90;;;;;;5116681;28;20282;-64
2022/04/14 01:04:43;;;;;;;;;;;10.00;99.90;;;;;;5112814;28;20000;-64
2022/04/14 01:07:09;;;;;;;;;;;9.90;99.90;;;;;;5097802;28;19931;-64
2022/04/14 01:09:36;;;;;;;;;;;9.90;99.90;;;;;;5116357;28;19928;-64
2022/04/14 01:12:01;;;;;;;;;;;9.90;99.90;;;;;;5114960;28;19939;-64
2022/04/14 01:14:27;;;;;;;;;;;9.90;99.90;;;;;;5113475;28;20340;-64
2022/04/14 01:16:53;;;;;;;;;;;10.00;99.90;;;;;;5095764;28;19924;-64
2022/04/14 01:19:19;;;;;;;;;;;10.00;99.90;;;;;;5094809;28;19978;-64
2022/04/14 01:21:46;;;;;;;;;;;10.10;99.90;;;;;;5100521;28;19927;-64
2022/04/14 01:24:13;;;;;;;;;;;10.20;99.90;;;;;;5080630;28;19930;-64
2022/04/14 01:26:40;;;;;;;;;;;10.30;99.90;;;;;;5095917;28;19932;-64
2022/04/14 01:29:05;;;;;;;;;;;10.30;99.90;;;;;;5095391;28;19924;-64
2022/04/14 01:31:31;;;;;;;;;;;10.30;99.90;;;;;;5084391;28;19981;-64
2022/04/14 01:33:57;;;;;;;;;;;10.30;99.90;;;;;;5110770;28;20010;-64
2022/04/14 01:36:22;;;;;;;;;;;10.30;99.90;;;;;;5115823;28;19931;-64
2022/04/14 01:38:48;;;;;;;;;;;10.40;99.90;;;;;;5114527;28;20417;-64
2022/04/14 01:41:14;;;;;;;;;;;10.40;99.90;;;;;;5097774;28;20010;-64
2022/04/14 01:43:40;;;;;;;;;;;10.30;99.90;;;;;;5115732;28;19924;-64
2022/04/14 01:46:08;;;;;;;;;;;10.30;99.90;;;;;;5096990;28;20373;-64
2022/04/14 01:48:34;;;;;;;;;;;10.30;99.90;;;;;;5114781;28;19924;-64
2022/04/14 01:51:00;;;;;;;;;;;10.40;99.90;;;;;;5115483;28;19931;-64
2022/04/14 01:53:25;;;;;;;;;;;10.30;99.90;;;;;;5114910;28;19923;-64
2022/04/14 01:55:51;;;;;;;;;;;10.30;99.90;;;;;;5115315;28;19923;-64
2022/04/14 01:58:16;;;;;;;;;;;10.20;99.90;;;;;;5094407;28;19927;-64
2022/04/14 02:00:42;;;;;;;;;;;10.20;99.90;;;;;;5094282;28;20366;-64
2022/04/14 02:03:08;;;;;;;;;;;10.20;99.90;;;;;;5095013;28;20015;-64
2022/04/14 02:05:33;;;;;;;;;;;10.10;99.90;;;;;;5114554;28;19920;-64
2022/04/14 02:07:59;;;;;;;;;;;10.00;99.90;;;;;;5096228;28;19931;-64
2022/04/14 02:10:25;;;;;;;;;;;10.20;99.90;;;;;;5115183;28;19927;-63
2022/04/14 02:12:50;;;;;;;;;;;10.00;99.90;;;;;;5115013;28;20014;-64
2022/04/14 02:15:17;;;;;;;;;;;9.90;99.90;;;;;;5103856;28;19928;-64
2022/04/14 02:17:43;;;;;;;;;;;9.90;99.90;;;;;;5094497;28;19924;-64
2022/04/14 02:20:08;;;;;;;;;;;9.90;99.90;;;;;;5094463;28;19931;-64
2022/04/14 02:22:38;;;;;;;;;;;10.00;99.90;;;;;;5091017;28;19924;-64
2022/04/14 02:25:04;;;;;;;;;;;10.00;99.90;;;;;;5090833;28;19939;-64
2022/04/14 02:27:30;;;;;;;;;;;10.00;99.90;;;;;;5075245;28;19924;-64
2022/04/14 02:29:56;;;;;;;;;;;9.90;99.90;;;;;;5076593;28;19924;-64
2022/04/14 02:32:21;;;;;;;;;;;10.00;99.90;;;;;;5095657;28;19924;-64
2022/04/14 02:34:47;;;;;;;;;;;9.80;99.90;;;;;;5113949;28;19966;-64
2022/04/14 02:37:13;;;;;;;;;;;9.70;99.90;;;;;;5114614;28;19926;-64
2022/04/14 02:39:39;;;;;;;;;;;9.70;99.90;;;;;;5114739;28;19924;-64
2022/04/14 02:42:05;;;;;;;;;;;9.60;99.90;;;;;;5113044;28;19930;-63
2022/04/14 02:44:30;;;;;;;;;;;9.60;99.90;;;;;;5106329;28;19923;-64
2022/04/14 02:46:56;;;;;;;;;;;9.50;99.90;;;;;;5114604;28;19976;-64
2022/04/14 02:49:23;;;;;;;;;;;9.50;99.90;;;;;;5112844;28;20377;-64
2022/04/14 02:51:49;;;;;;;;;;;9.60;99.90;;;;;;5079493;28;19931;-63
2022/04/14 02:54:15;;;;;;;;;;;9.60;99.90;;;;;;5114689;28;19923;-63
2022/04/14 02:56:41;;;;;;;;;;;;;;;;;;5113354;28;19923;-63
2022/04/14 02:59:06;;;;;;;;;;;9.30;99.90;;;;;;5113875;28;20396;-64
2022/04/14 03:01:32;;;;;;;;;;;9.20;99.90;;;;;;5114377;28;19935;-64
2022/04/14 03:03:57;;;;;;;;;;;9.20;99.90;;;;;;5100913;28;19924;-63
2022/04/14 03:06:23;;;;;;;;;;;9.20;99.90;;;;;;5093791;28;20006;-64
2022/04/14 03:08:49;;;;;;;;;;;9.20;99.90;;;;;;5088875;28;19966;-63
2022/04/14 03:11:14;;;;;;;;;;;9.20;99.90;;;;;;5094846;28;19973;-64
2022/04/14 03:13:42;;;;;;;;;;;9.10;99.90;;;;;;5114269;28;19967;-63
2022/04/14 03:16:08;;;;;;;;;;;9.00;99.90;;;;;;5096989;28;20498;-64
2022/04/14 03:18:33;;;;;;;;;;;9.00;99.90;;;;;;5092532;28;20040;-64
2022/04/14 03:20:59;;;;;;;;;;;8.90;99.90;;;;;;5093664;28;20008;-64
2022/04/14 03:23:25;;;;;;;;;;;8.90;99.90;;;;;;5086518;28;19928;-63
2022/04/14 03:25:52;;;;;;;;;;;8.80;99.90;;;;;;5097491;28;19981;-64
2022/04/14 03:28:17;;;;;;;;;;;8.80;99.90;;;;;;5113775;28;19971;-63
2022/04/14 03:30:43;;;;;;;;;;;8.60;99.90;;;;;;5113739;28;19935;-63
2022/04/14 03:33:08;;;;;;;;;;;8.60;99.90;;;;;;5113298;28;19924;-63
2022/04/14 03:35:34;;;;;;;;;;;8.50;99.90;;;;;;5113267;28;19980;-63
2022/04/14 03:38:00;;;;;;;;;;;8.40;99.90;;;;;;5094572;28;19969;-63
2022/04/14 03:40:25;;;;;;;;;;;8.40;99.90;;;;;;5113629;28;19927;-63
2022/04/14 03:42:51;;;;;;;;;;;8.30;99.90;;;;;;5113009;28;20054;-63
2022/04/14 03:45:16;;;;;;;;;;;8.20;99.90;;;;;;5112924;28;19919;-63
2022/04/14 03:47:42;;;;;;;;;;;8.30;99.90;;;;;;5095526;28;19924;-63
2022/04/14 03:50:08;;;;;;;;;;;8.40;99.90;;;;;;5113729;28;20293;-63
2022/04/14 03:52:34;;;;;;;;;;;8.50;99.90;;;;;;5112483;28;19924;-63
2022/04/14 03:54:59;;;;;;;;;;;8.70;99.90;;;;;;5113871;28;20011;-64
2022/04/14 03:57:25;;;;;;;;;;;8.70;99.90;;;;;;5095105;28;19934;-64
2022/04/14 03:59:51;;;;;;;;;;;8.80;99.90;;;;;;5112052;28;19920;-63
2022/04/14 04:02:16;;;;;;;;;;;8.90;99.90;;;;;;5113644;28;19923;-64
2022/04/14 04:04:42;;;;;;;;;;;8.90;99.90;;;;;;5094560;28;19971;-63
2022/04/14 04:07:08;;;;;;;;;;;8.80;99.90;;;;;;5092508;28;20388;-63
2022/04/14 04:09:33;;;;;;;;;;;8.70;99.90;;;;;;5092775;28;20390;-64
2022/04/14 04:12:00;;;;;;;;;;;8.60;99.90;;;;;;5092586;28;20309;-63
2022/04/14 04:14:26;;;;;;;;;;;8.60;99.90;;;;;;5088045;28;20329;-63
2022/04/14 04:16:51;;;;;;;;;;;8.50;99.90;;;;;;5056057;28;19969;-63
2022/04/14 04:19:17;;;;;;;;;;;8.40;99.90;;;;;;5102123;28;19920;-63
2022/04/14 04:21:42;;;;;;;;;;;8.40;99.90;;;;;;5094586;28;19924;-63
2022/04/14 04:24:08;;;;;;;;;;;8.30;99.90;;;;;;5098850;28;19920;-64
2022/04/14 04:26:34;;;;;;;;;;;8.20;99.90;;;;;;5109886;28;19924;-63
2022/04/14 04:28:59;;;;;;;;;;;8.30;99.90;;;;;;5091952;28;20386;-63
2022/04/14 04:31:25;;;;;;;;;;;8.10;99.90;;;;;;5093186;28;20396;-64
2022/04/14 04:33:51;;;;;;;;;;;8.00;99.90;;;;;;5092697;28;19931;-63
2022/04/14 04:36:17;;;;;;;;;;;7.80;99.90;;;;;;5090266;28;19928;-63
2022/04/14 04:38:43;;;;;;;;;;;7.80;99.90;;;;;;5095231;28;20006;-63
2022/04/14 04:41:08;;;;;;;;;;;7.80;99.90;;;;;;5095505;28;20451;-63
2022/04/14 04:43:34;;;;;;;;;;;7.70;99.90;;;;;;5078287;28;19930;-63
2022/04/14 04:46:00;;;;;;;;;;;7.70;99.90;;;;;;5112283;28;19924;-63
2022/04/14 04:48:25;;;;;;;;;;;7.70;99.90;;;;;;5115743;28;20774;-63
2022/04/14 04:50:51;;;;;;;;;;;7.70;99.90;;;;;;5098536;28;20375;-63
2022/04/14 04:53:17;;;;;;;;;;;7.70;99.90;;;;;;5097975;28;19924;-63
2022/04/14 04:55:43;;;;;;;;;;;7.70;99.90;;;;;;5115792;28;20400;-63
2022/04/14 04:58:08;;;;;;;;;;;7.70;99.90;;;;;;5116364;28;19924;-63
2022/04/14 05:00:34;;;;;;;;;;;7.80;99.90;;;;;;5116878;28;20360;-63
2022/04/14 05:02:59;;;;;;;;;;;7.80;99.90;;;;;;5092403;28;19924;-63
2022/04/14 05:05:25;;;;;;;;;;;7.70;99.90;;;;;;5095993;28;20023;-63
2022/04/14 05:07:51;;;;;;;;;;;7.80;99.90;;;;;;5096402;28;19931;-63
2022/04/14 05:10:17;;;;;;;;;;;7.80;99.90;;;;;;5076681;28;19924;-63
2022/04/14 05:12:42;;;;;;;;;;;7.80;99.90;;;;;;5077126;28;19975;-63
2022/04/14 05:15:08;;;;;;;;;;;7.90;99.90;;;;;;5080016;28;20357;-63
2022/04/14 05:17:34;;;;;;;;;;;7.90;99.90;;;;;;5066797;28;19924;-63
2022/04/14 05:20:00;;;;;;;;;;;8.10;99.90;;;;;;5057235;28;19924;-63
2022/04/14 05:22:25;;;;;;;;;;;8.10;99.90;;;;;;5057371;28;20332;-63
2022/04/14 05:24:51;;;;;;;;;;;8.20;99.90;;;;;;5075348;28;19993;-63
2022/04/14 05:27:17;;;;;;;;;;;8.30;99.90;;;;;;5095464;28;19931;-63
2022/04/14 05:29:43;;;;;;;;;;;8.30;99.90;;;;;;5076876;28;19924;-63
2022/04/14 05:32:09;;;;;;;;;;;8.30;99.90;;;;;;5094541;28;19964;-63
2022/04/14 05:34:34;;;;;;;;;;;8.40;99.90;;;;;;5095633;28;19925;-63
2022/04/14 05:37:00;;;;;;;;;;;8.40;99.90;;;;;;5095607;28;19924;-63
2022/04/14 05:39:25;;;;;;;;;;;8.40;99.90;;;;;;5093314;28;19931;-63
2022/04/14 05:41:51;;;;;;;;;;;8.40;99.90;;;;;;5077099;28;19931;-63
2022/04/14 05:44:18;;;;;;;;;;;8.40;99.90;;;;;;5095499;28;19924;-63
2022/04/14 05:46:43;;;;;;;;;;;8.60;99.90;;;;;;5068752;28;19925;-63
2022/04/14 05:49:09;;;;;;;;;;;8.70;99.90;;;;;;5074188;28;19925;-63
2022/04/14 05:51:34;;;;;;;;;;;8.70;99.90;;;;;;5056272;28;19929;-63
2022/04/14 05:54:00;;;;;;;;;;;8.80;99.90;;;;;;5073432;28;19932;-63
2022/04/14 05:56:26;;;;;;;;;;;9.00;99.90;;;;;;5057516;28;19947;-63
2022/04/14 05:58:53;;;;;;;;;;;9.00;99.90;;;;;;5073055;28;19925;-64
2022/04/14 06:01:19;;;;;;;;;;;9.20;99.90;;;;;;5074549;28;20282;-63
2022/04/14 06:03:45;;;;;;;;;;;9.20;99.90;;;;;;5079298;28;19935;-63
2022/04/14 06:06:12;;;;;;;;;;;9.40;99.90;;;;;;5075914;28;19924;-63
2022/04/14 06:08:37;;;;;;;;;;;9.40;99.90;;;;;;5094456;28;20049;-64
2022/04/14 06:11:05;;;;;;;;;;;9.50;99.90;;;;;;5094638;28;19970;-63
2022/04/14 06:13:31;;;;;;;;;;;9.50;99.90;;;;;;5093510;28;19924;-63
2022/04/14 06:15:57;;;;;;;;;;;9.60;99.90;;;;;;5066637;28;19925;-63
2022/04/14 06:18:22;;;;;;;;;;;9.70;99.90;;;;;;5035308;28;19924;-63
2022/04/14 06:20:49;;;;;;;;;;;9.80;99.90;;;;;;5065123;28;19932;-63
2022/04/14 06:23:16;;;;;;;;;;;9.90;99.90;;;;;;5072390;28;19928;-63
2022/04/14 06:25:45;;;;;;;;;;;10.10;99.90;;;;;;5073969;28;19928;-63
2022/04/14 06:28:11;;;;;;;;;;;10.10;99.90;;;;;;5073741;28;19924;-63
2022/04/14 06:30:36;;;;;;;;;;;10.20;99.90;;;;;;5072673;28;19970;-63
2022/04/14 06:33:03;;;;;;;;;;;10.40;99.90;;;;;;5073809;28;19924;-64
2022/04/14 06:35:28;;;;;;;;;;;10.50;99.90;;;;;;5072805;28;19932;-63
2022/04/14 06:37:54;;;;;;;;;;;10.60;99.90;;;;;;5038615;28;19920;-64
2022/04/14 06:40:21;;;;;;;;;;;10.70;99.90;;;;;;5072842;28;19929;-63
2022/04/14 06:42:47;;;;;;;;;;;10.80;99.90;;;;;;5053154;28;19935;-63
2022/04/14 06:45:12;;;;;;;;;;;10.90;99.90;;;;;;5055975;28;19921;-63
2022/04/14 06:47:38;;;;;;;;;;;10.90;99.90;;;;;;5073520;28;19932;-63
2022/04/14 06:50:04;;;;;;;;;;;11.00;99.90;;;;;;5080857;28;19920;-64
2022/04/14 06:52:29;;;;;;;;;;;11.00;99.90;;;;;;5055706;28;20383;-64
2022/04/14 06:54:55;;;;;;;;;;;11.10;99.90;;;;;;5072718;28;19932;-64
2022/04/14 06:57:21;;;;;;;;;;;11.20;99.90;;;;;;5059034;28;19931;-63
2022/04/14 06:59:46;;;;;;;;;;;11.20;99.90;;;;;;5094070;28;20008;-64
2022/04/14 07:02:12;;;;;;;;;;;11.20;99.90;;;;;;5067219;28;20375;-63
2022/04/14 07:04:38;;;;;;;;;;;11.30;99.90;;;;;;5056862;28;19931;-63
2022/04/14 07:07:04;;;;;;;;;;;11.40;99.90;;;;;;5085470;28;19975;-64
2022/04/14 07:09:32;;;;;;;;;;;11.40;99.90;;;;;;5072239;28;19928;-64
2022/04/14 07:11:59;;;;;;;;;;;11.60;99.90;;;;;;5071801;28;19932;-64
2022/04/14 07:14:26;;;;;;;;;;;11.60;99.90;;;;;;5070391;28;19928;-63
2022/04/14 07:16:52;;;;;;;;;;;11.70;99.90;;;;;;5047276;28;19932;-63
2022/04/14 07:19:18;;;;;;;;;;;11.80;99.90;;;;;;5066474;28;19935;-63
2022/04/14 07:21:44;;;;;;;;;;;11.80;99.90;;;;;;5075922;28;19932;-64
2022/04/14 07:24:10;;;;;;;;;;;11.90;99.90;;;;;;5082022;28;19924;-64
2022/04/14 07:26:36;;;;;;;;;;;12.10;99.90;;;;;;5060119;28;19925;-63
2022/04/14 07:29:02;;;;;;;;;;;12.20;99.90;;;;;;5055041;28;19928;-64
2022/04/14 07:31:28;;;;;;;;;;;12.30;99.90;;;;;;5083388;28;19925;-64
2022/04/14 07:33:53;;;;;;;;;;;12.40;99.90;;;;;;5054057;28;19931;-64
2022/04/14 07:36:21;;;;;;;;;;;12.40;99.90;;;;;;5054470;28;19931;-64
2022/04/14 07:38:47;;;;;;;;;;;12.50;99.90;;;;;;5046037;28;20029;-63
2022/04/14 07:41:12;;;;;;;;;;;12.60;99.90;;;;;;5039070;28;19983;-64
2022/04/14 07:43:38;;;;;;;;;;;12.80;99.90;;;;;;5092454;28;19947;-64
2022/04/14 07:46:04;;;;;;;;;;;12.90;99.90;;;;;;5074247;28;19924;-64
2022/04/14 07:48:30;;;;;;;;;;;12.90;99.90;;;;;;5072743;28;19931;-64
2022/04/14 07:50:55;;;;;;;;;;;13.10;99.90;;;;;;5063784;28;20432;-64
2022/04/14 07:53:21;;;;;;;;;;;13.20;99.90;;;;;;5074589;28;19924;-64
2022/04/14 07:55:47;;;;;;;;;;;13.20;99.90;;;;;;5075405;28;19971;-64
2022/04/14 07:58:12;;;;;;;;;;;13.30;99.90;;;;;;5074035;28;20019;-64
2022/04/14 08:00:39;;;;;;;;;;;13.40;99.90;;;;;;5092245;28;19927;-64
2022/04/14 08:03:06;;;;;;;;;;;13.50;99.90;;;;;;5075071;28;19935;-64
2022/04/14 08:05:34;;;;;;;;;;;13.50;99.90;;;;;;5074177;28;19970;-64
2022/04/14 08:08:00;;;;;;;;;;;13.50;99.90;;;;;;5092306;28;19931;-64
2022/04/14 08:10:26;;;;;;;;;;;13.60;99.90;;;;;;5075150;28;19967;-64
2022/04/14 08:12:51;;;;;;;;;;;13.70;99.90;;;;;;5073383;28;19982;-64
2022/04/14 08:15:17;;;;;;;;;;;13.80;99.90;;;;;;5076058;28;19924;-64
2022/04/14 08:17:43;;;;;;;;;;;13.90;99.90;;;;;;5058088;28;19924;-64
2022/04/14 08:20:10;;;;;;;;;;;13.90;99.90;;;;;;5075925;28;19924;-64
2022/04/14 08:22:47;;;;;;;;;;;14.00;99.90;;;;;;5076318;28;20721;-64
2022/04/14 08:25:13;;;;;;;;;;;14.10;99.90;;;;;;5096017;28;19943;-64
2022/04/14 08:27:39;;;;;;;;;;;14.20;99.90;;;;;;5060629;28;19925;-64
2022/04/14 08:30:05;;;;;;;;;;;14.20;99.90;;;;;;5075971;28;20393;-64
2022/04/14 08:32:31;;;;;;;;;;;14.30;99.90;;;;;;5041789;28;19947;-64
2022/04/14 08:34:56;;;;;;;;;;;14.30;99.90;;;;;;5082929;28;19977;-64
2022/04/14 08:37:22;;;;;;;;;;;14.40;99.90;;;;;;5096057;28;20374;-64
2022/04/14 08:39:48;;;;;;;;;;;14.50;99.90;;;;;;5090373;28;19924;-64
2022/04/14 08:42:19;;;;;;;;;;;14.50;99.90;;;;;;5074251;28;20322;-64
2022/04/14 08:44:47;;;;;;;;;;;14.50;99.90;;;;;;5056759;28;19936;-64
2022/04/14 08:47:15;;;;;;;;;;;14.60;99.90;;;;;;5075012;28;19931;-64
2022/04/14 08:49:40;;;;;;;;;;;14.80;99.90;;;;;;5074500;28;19924;-64
2022/04/14 08:52:07;;;;;;;;;;;14.90;99.90;;;;;;5060542;28;19924;-64
2022/04/14 08:54:33;;;;;;;;;;;15.10;99.90;;;;;;5095763;28;19924;-64
2022/04/14 08:56:59;;;;;;;;;;;15.10;99.90;;;;;;5096337;28;20281;-64
2022/04/14 08:59:26;;;;;;;;;;;15.10;99.90;;;;;;5067039;28;20256;-64
2022/04/14 09:01:52;;;;;;;;;;;15.10;99.90;;;;;;5073988;28;19928;-64
2022/04/14 09:04:17;;;;;;;;;;;15.10;99.90;;;;;;5075529;28;19928;-63
2022/04/14 09:06:43;;;;;;;;;;;15.10;99.90;;;;;;5075189;28;19925;-64
2022/04/14 09:09:09;;;;;;;;;;;15.10;99.90;;;;;;5079942;28;19924;-64
2022/04/14 09:11:34;;;;;;;;;;;15.20;99.90;;;;;;5116018;28;20297;-64
2022/04/14 09:14:00;;;;;;;;;;;15.20;99.90;;;;;;5116231;28;19923;-64
2022/04/14 09:16:26;;;;;;;;;;;15.30;99.90;;;;;;5115042;28;20323;-64
2022/04/14 09:18:53;;;;;;;;;;;15.40;99.90;;;;;;5115985;28;20019;-64
2022/04/14 09:21:19;;;;;;;;;;;15.50;99.90;;;;;;5097161;28;19930;-64
2022/04/14 09:23:51;;;;;;;;;;;15.50;99.90;;;;;;5114156;28;20369;-63
2022/04/14 09:26:22;;;;;;;;;;;15.40;99.90;;;;;;5113125;28;19971;-64
2022/04/14 09:29:03;;;;;;;;;;;15.50;99.90;;;;;;5115241;28;19924;-64
2022/04/14 09:31:29;;;;;;;;;;;15.60;99.90;;;;;;5096998;28;20294;-64
2022/04/14 09:33:55;;;;;;;;;;;15.60;99.90;;;;;;5116164;28;20003;-64
2022/04/14 09:36:23;;;;;;;;;;;15.70;99.90;;;;;;5115121;28;20401;-63
2022/04/14 09:38:49;;;;;;;;;;;15.90;99.90;;;;;;5096929;28;20015;-64
2022/04/14 09:41:26;;;;;;;;;;;16.20;99.90;;;;;;5115759;28;20546;-64
2022/04/14 09:43:52;;;;;;;;;;;16.30;99.90;;;;;;5113433;28;19920;-64
2022/04/14 09:46:19;;;;;;;;;;;16.40;99.90;;;;;;5108138;28;19947;-64
2022/04/14 09:48:58;;;;;;;;;;;16.50;99.90;;;;;;5096934;28;19926;-64
2022/04/14 09:51:25;;;;;;;;;;;16.60;99.90;;;;;;5114684;28;19924;-64
2022/04/14 09:53:50;;;;;;;;;;;16.50;99.90;;;;;;5115269;28;19982;-64
2022/04/14 09:56:16;;;;;;;;;;;16.50;99.90;;;;;;5115486;28;19974;-64
2022/04/14 09:58:42;;;;;;;;;;;16.60;99.90;;;;;;5096141;28;19931;-64
2022/04/14 10:01:07;;;;;;;;;;;16.70;99.90;;;;;;5115628;28;19920;-64
2022/04/14 10:03:34;;;;;;;;;;;16.50;99.90;;;;;;5115022;28;19930;-64
2022/04/14 10:06:04;;;;;;;;;;;16.40;99.90;;;;;;5096188;28;20255;-64
2022/04/14 10:08:42;;;;;;;;;;;16.50;99.90;;;;;;5115209;28;19923;-63
2022/04/14 10:11:08;;;;;;;;;;;16.50;99.90;;;;;;5096755;28;19930;-64
2022/04/14 10:13:34;;;;;;;;;;;16.30;99.90;;;;;;5113963;28;20354;-64
2022/04/14 10:16:00;;;;;;;;;;;16.10;99.90;;;;;;5096780;28;19970;-64
2022/04/14 10:18:26;;;;;;;;;;;16.20;99.90;;;;;;5114509;28;19955;-64
2022/04/14 10:20:52;;;;;;;;;;;16.60;99.90;;;;;;5113303;28;19923;-64
2022/04/14 10:23:17;;;;;;;;;;;16.40;99.90;;;;;;5113508;28;19923;-64
2022/04/14 10:25:43;;;;;;;;;;;16.20;99.90;;;;;;5095389;28;19927;-64
2022/04/14 10:28:14;;;;;;;;;;;16.20;99.90;;;;;;5114309;28;19971;-64
2022/04/14 10:30:40;;;;;;;;;;;16.50;99.90;;;;;;5096436;28;19920;-64
2022/04/14 10:33:06;;;;;;;;;;;17.10;99.90;;;;;;5113955;28;19928;-64
2022/04/14 10:35:32;;;;;;;;;;;17.70;99.90;;;;;;5113968;28;19969;-64
2022/04/14 10:38:05;;;;;;;;;;;18.10;99.90;;;;;;5113989;28;19924;-64
2022/04/14 10:40:31;;;;;;;;;;;18.30;99.90;;;;;;5112308;28;19968;-64
2022/04/14 10:42:58;;;;;;;;;;;17.70;99.90;;;;;;5114094;28;20382;-64
2022/04/14 10:45:24;;;;;;;;;;;17.20;99.90;;;;;;5114880;28;20271;-64
2022/04/14 10:47:50;;;;;;;;;;;16.90;99.90;;;;;;5113737;28;19931;-64
2022/04/14 10:50:24;;;;;;;;;;;16.60;99.90;;;;;;5113973;28;19934;-64
2022/04/14 10:53:06;;;;;;;;;;;16.30;99.90;;;;;;5115041;28;19938;-64
2022/04/14 10:55:36;;;;;;;;;;;16.30;99.90;;;;;;5095306;28;19924;-64
2022/04/14 10:58:02;;;;;;;;;;;16.80;99.90;;;;;;5114093;28;19983;-64
2022/04/14 11:00:35;;;;;;;;;;;17.50;99.90;;;;;;5114178;28;20084;-64
2022/04/14 11:03:04;;;;;;;;;;;17.60;99.90;;;;;;5113693;28;19931;-64
2022/04/14 11:05:39;;;;;;;;;;;18.00;99.90;;;;;;5113782;28;20266;-64
2022/04/14 11:08:24;;;;;;;;;;;18.30;99.90;;;;;;5113201;28;20202;-64
2022/04/14 11:11:01;;;;;;;;;;;18.50;99.90;;;;;;5113353;28;19924;-65
2022/04/14 11:13:46;;;;;;;;;;;18.20;99.90;;;;;;5109081;28;19935;-64
2022/04/14 11:16:32;;;;;;;;;;;17.60;99.90;;;;;;5110617;28;21289;-65
2022/04/14 11:19:24;;;;;;;;;;;17.60;99.90;;;;;;5111113;28;19928;-65
2022/04/14 11:22:02;;;;;;;;;;;17.30;99.90;;;;;;5113584;28;19924;-64
2022/04/14 11:24:36;;;;;;;;;;;16.80;99.90;;;;;;5109876;27;20338;-64
2022/04/14 11:27:11;;;;;;;;;;;16.50;99.90;;;;;;5134021;27;20377;-64
2022/04/14 11:29:37;;;;;;;;;;;16.30;99.90;;;;;;5115124;27;19969;-65
2022/04/14 11:32:03;;;;;;;;;;;16.40;99.90;;;;;;5125763;27;19924;-65
2022/04/14 11:34:47;;;;;;;;;;;16.50;99.90;;;;;;5095548;28;19924;-64
2022/04/14 11:37:37;;;;;;;;;;;16.80;99.90;;;;;;5112954;28;19923;-62
2022/04/14 11:40:10;;;;;;;;;;;17.80;99.90;;;;;;5113422;28;20294;-62
2022/04/14 11:42:35;;;;;;;;;;;18.00;99.90;;;;;;5113501;28;20364;-62
2022/04/14 11:45:01;;;;;;;;;;;18.10;99.90;;;;;;5084692;28;20015;-62
2022/04/14 11:47:27;;;;;;;;;;;18.20;99.90;;;;;;5112674;28;19928;-62
2022/04/14 11:49:53;;;;;;;;;;;18.20;99.90;;;;;;5112654;28;19935;-62
2022/04/14 11:52:21;;;;;;;;;;;18.40;99.90;;;;;;5112526;28;19928;-62
2022/04/14 11:54:49;;;;;;;;;;;18.50;99.70;;;;;;5112309;28;19931;-63
2022/04/14 11:57:18;;;;;;;;;;;18.30;99.90;;;;;;5112373;28;19923;-63
2022/04/14 11:59:45;;;;;;;;;;;18.50;99.90;;;;;;5112908;28;19937;-63
2022/04/14 12:02:14;;;;;;;;;;;18.70;99.90;;;;;;5094649;28;19924;-62
2022/04/14 12:04:45;;;;;;;;;;;18.70;99.90;;;;;;5092215;28;20307;-62
2022/04/14 12:07:10;;;;;;;;;;;18.80;99.90;;;;;;5098491;28;19938;-63
2022/04/14 12:09:38;;;;;;;;;;;18.90;99.90;;;;;;5113147;28;19927;-62
2022/04/14 12:12:12;;;;;;;;;;;18.90;99.90;;;;;;5091566;28;19998;-62
2022/04/14 12:14:46;;;;;;;;;;;18.90;99.90;;;;;;5096359;28;19930;-63
2022/04/14 12:17:13;;;;;;;;;;;18.90;99.90;;;;;;5112781;28;19923;-63
2022/04/14 12:19:41;;;;;;;;;;;18.70;99.90;;;;;;5112110;28;19998;-63
2022/04/14 12:22:06;;;;;;;;;;;18.40;99.90;;;;;;5113128;28;19970;-63
2022/04/14 12:24:32;;;;;;;;;;;18.00;99.90;;;;;;5109491;28;19971;-62
2022/04/14 12:26:58;;;;;;;;;;;17.60;99.90;;;;;;5091383;28;19940;-63
2022/04/14 12:29:24;;;;;;;;;;;17.30;99.90;;;;;;5092430;28;19923;-63
2022/04/14 12:31:54;;;;;;;;;;;17.30;99.90;;;;;;5091376;28;20015;-62
2022/04/14 12:34:20;;;;;;;;;;;17.40;99.90;;;;;;5108204;28;20370;-62
2022/04/14 12:36:45;;;;;;;;;;;17.30;99.90;;;;;;5094777;28;19946;-63
2022/04/14 12:39:19;;;;;;;;;;;17.30;99.90;;;;;;5094466;28;19927;-63
2022/04/14 12:41:45;;;;;;;;;;;17.30;99.90;;;;;;5089181;28;20061;-63
2022/04/14 12:44:15;;;;;;;;;;;17.20;99.90;;;;;;5112266;28;20015;-63
2022/04/14 12:46:41;;;;;;;;;;;17.00;99.90;;;;;;5111889;28;19927;-63
2022/04/14 12:49:09;;;;;;;;;;;16.70;99.90;;;;;;5094303;28;20323;-62
2022/04/14 12:51:38;;;;;;;;;;;16.60;99.90;;;;;;5094207;28;20410;-62
2022/04/14 12:54:04;;;;;;;;;;;16.30;99.90;;;;;;5111990;28;20382;-63
2022/04/14 12:56:32;;;;;;;;;;;16.20;99.90;;;;;;5112563;28;19963;-63
2022/04/14 12:59:07;;;;;;;;;;;16.10;99.90;;;;;;5113959;28;19924;-63
2022/04/14 13:01:53;;;;;;;;;;;16.10;99.90;;;;;;5109203;28;19994;-63
2022/04/14 13:04:20;;;;;;;;;;;16.00;99.90;;;;;;5111029;28;19924;-63
2022/04/14 13:06:55;;;;;;;;;;;15.90;99.90;;;;;;5115701;28;19951;-62
2022/04/14 13:09:21;;;;;;;;;;;15.80;99.90;;;;;;5114956;28;19957;-63
2022/04/14 13:11:48;;;;;;;;;;;15.70;99.90;;;;;;5097415;28;19928;-63
2022/04/14 13:14:19;;;;;;;;;;;15.60;99.90;;;;;;5115746;28;19931;-62
2022/04/14 13:16:45;;;;;;;;;;;15.40;99.90;;;;;;5100775;28;19927;-62
2022/04/14 13:19:11;;;;;;;;;;;15.40;99.90;;;;;;5120773;27;20002;-63
2022/04/14 13:21:37;;;;;;;;;;;15.30;99.90;;;;;;5118327;27;20437;-62
2022/04/14 13:24:03;;;;;;;;;;;15.20;99.90;;;;;;5096838;28;19966;-63
2022/04/14 13:26:29;;;;;;;;;;;15.00;99.90;;;;;;5114971;28;19923;-63
2022/04/14 13:28:55;;;;;;;;;;;14.80;99.90;;;;;;5097332;28;20117;-62
2022/04/14 13:31:21;;;;;;;;;;;14.70;99.90;;;;;;5115663;28;19924;-63
2022/04/14 13:33:46;;;;;;;;;;;14.70;99.90;;;;;;5115458;28;20372;-62
2022/04/14 13:36:12;;;;;;;;;;;14.80;99.90;;;;;;5114700;28;19927;-63
2022/04/14 13:38:38;;;;;;;;;;;14.90;99.90;;;;;;5083733;28;20292;-62
2022/04/14 13:41:03;;;;;;;;;;;14.90;99.90;;;;;;5085237;28;19937;-62
2022/04/14 13:43:29;;;;;;;;;;;14.70;99.90;;;;;;5115156;28;19920;-62
2022/04/14 13:45:55;;;;;;;;;;;14.50;99.90;;;;;;5115059;28;20018;-62
2022/04/14 13:48:20;;;;;;;;;;;14.60;99.90;;;;;;5097230;28;19935;-63
2022/04/14 13:50:46;;;;;;;;;;;14.60;99.90;;;;;;5114192;28;19919;-63
2022/04/14 13:53:13;;;;;;;;;;;14.50;99.90;;;;;;5114175;28;20385;-62
2022/04/14 13:55:39;;;;;;;;;;;14.60;99.90;;;;;;5102625;28;19927;-62
2022/04/14 13:58:05;;;;;;;;;;;14.60;99.90;;;;;;5114665;28;19928;-62
2022/04/14 14:00:31;;;;;;;;;;;14.80;99.90;;;;;;5114789;28;19931;-62
2022/04/14 14:02:57;;;;;;;;;;;14.80;99.90;;;;;;5114303;28;20285;-62
2022/04/14 14:05:22;;;;;;;;;;;14.90;99.90;;;;;;5114398;28;19924;-62
2022/04/14 14:07:48;;;;;;;;;;;15.10;99.90;;;;;;5114872;28;19924;-63
2022/04/14 14:10:14;;;;;;;;;;;15.50;99.90;;;;;;5113705;28;20013;-63
2022/04/14 14:12:40;;;;;;;;;;;15.60;99.90;;;;;;5092271;28;19932;-63
2022/04/14 14:15:06;;;;;;;;;;;15.50;99.90;;;;;;5101997;28;19932;-63
2022/04/14 14:17:34;;;;;;;;;;;15.40;99.90;;;;;;5082857;28;19931;-63
2022/04/14 14:19:59;;;;;;;;;;;15.40;99.90;;;;;;5100815;28;19924;-62